sensor_id;sensor_type;location;lat;lon;timestamp;pressure;altitude;pressure_sealevel;temperature
70050;BMP180;57391;51.306;22.680;2022-10-17T00:01:04;100665.80;;;13.60
70050;BMP180;57391;51.306;22.680;2022-10-17T00:03:35;100665.80;;;13.60
70050;BMP180;57391;51.306;22.680;2022-10-17T00:06:10;100662.40;;;13.60
70050;BMP180;57391;51.306;22.680;2022-10-17T00:08:40;100661.40;;;13.56
70050;BMP180;57391;51.306;22.680;2022-10-17T00:11:20;100663.40;;;13.50
70050;BMP180;57391;51.306;22.680;2022-10-17T00:13:50;100665.20;;;13.50
70050;BMP180;57391;51.306;22.680;2022-10-17T00:16:28;100668.40;;;13.50
70050;BMP180;57391;51.306;22.680;2022-10-17T00:18:56;100673.40;;;13.50
70050;BMP180;57391;51.306;22.680;2022-10-17T00:21:25;100677.80;;;13.44
70050;BMP180;57391;51.306;22.680;2022-10-17T00:23:58;100676.40;;;13.40
70050;BMP180;57391;51.306;22.680;2022-10-17T00:26:26;100681.20;;;13.40
70050;BMP180;57391;51.306;22.680;2022-10-17T00:28:55;100683.40;;;13.40
70050;BMP180;57391;51.306;22.680;2022-10-17T00:31:23;100681.00;;;13.40
70050;BMP180;57391;51.306;22.680;2022-10-17T00:33:51;100679.60;;;13.36
70050;BMP180;57391;51.306;22.680;2022-10-17T00:36:25;100680.20;;;13.30
70050;BMP180;57391;51.306;22.680;2022-10-17T00:38:57;100682.00;;;13.30
70050;BMP180;57391;51.306;22.680;2022-10-17T00:41:32;100681.00;;;13.30
70050;BMP180;57391;51.306;22.680;2022-10-17T00:47:00;100681.20;;;13.24
70050;BMP180;57391;51.306;22.680;2022-10-17T00:49:33;100676.80;;;13.20
70050;BMP180;57391;51.306;22.680;2022-10-17T00:52:07;100672.60;;;13.20
70050;BMP180;57391;51.306;22.680;2022-10-17T00:54:45;100667.40;;;13.20
70050;BMP180;57391;51.306;22.680;2022-10-17T00:57:15;100671.60;;;13.18
70050;BMP180;57391;51.306;22.680;2022-10-17T00:59:50;100674.00;;;13.10
70050;BMP180;57391;51.306;22.680;2022-10-17T01:03:27;100672.40;;;13.10
70050;BMP180;57391;51.306;22.680;2022-10-17T01:05:54;100673.20;;;13.08
70050;BMP180;57391;51.306;22.680;2022-10-17T01:08:21;100674.60;;;13.00
70050;BMP180;57391;51.306;22.680;2022-10-17T01:11:40;100679.60;;;13.00
70050;BMP180;57391;51.306;22.680;2022-10-17T01:14:34;100674.40;;;13.00
70050;BMP180;57391;51.306;22.680;2022-10-17T01:29:32;100687.60;;;12.80
70050;BMP180;57391;51.306;22.680;2022-10-17T01:32:19;100693.80;;;12.80
70050;BMP180;57391;51.306;22.680;2022-10-17T01:35:09;100700.40;;;12.70
70050;BMP180;57391;51.306;22.680;2022-10-17T01:37:48;100708.60;;;12.70
70050;BMP180;57391;51.306;22.680;2022-10-17T01:40:26;100712.40;;;12.70
70050;BMP180;57391;51.306;22.680;2022-10-17T01:43:23;100714.20;;;12.70
70050;BMP180;57391;51.306;22.680;2022-10-17T01:46:05;100717.20;;;12.70
70050;BMP180;57391;51.306;22.680;2022-10-17T01:48:37;100723.80;;;12.70
70050;BMP180;57391;51.306;22.680;2022-10-17T01:51:14;100726.40;;;12.70
70050;BMP180;57391;51.306;22.680;2022-10-17T01:53:58;100735.60;;;12.70
70050;BMP180;57391;51.306;22.680;2022-10-17T01:56:30;100733.20;;;12.70
70050;BMP180;57391;51.306;22.680;2022-10-17T01:59:06;100731.20;;;12.80
70050;BMP180;57391;51.306;22.680;2022-10-17T02:01:37;100727.20;;;12.80
70050;BMP180;57391;51.306;22.680;2022-10-17T02:04:08;100726.80;;;12.80
70050;BMP180;57391;51.306;22.680;2022-10-17T02:06:36;100724.20;;;12.80
70050;BMP180;57391;51.306;22.680;2022-10-17T02:09:25;100721.40;;;12.80
70050;BMP180;57391;51.306;22.680;2022-10-17T02:22:39;100715.40;;;12.60
70050;BMP180;57391;51.306;22.680;2022-10-17T02:28:08;100712.40;;;12.50
70050;BMP180;57391;51.306;22.680;2022-10-17T02:30:49;100712.00;;;12.50
70050;BMP180;57391;51.306;22.680;2022-10-17T02:33:26;100714.00;;;12.50
70050;BMP180;57391;51.306;22.680;2022-10-17T02:36:02;100721.40;;;12.50
70050;BMP180;57391;51.306;22.680;2022-10-17T02:38:31;100723.00;;;12.40
70050;BMP180;57391;51.306;22.680;2022-10-17T02:41:02;100726.00;;;12.40
70050;BMP180;57391;51.306;22.680;2022-10-17T02:43:30;100723.60;;;12.40
70050;BMP180;57391;51.306;22.680;2022-10-17T02:45:58;100723.20;;;12.40
70050;BMP180;57391;51.306;22.680;2022-10-17T02:48:40;100733.80;;;12.30
70050;BMP180;57391;51.306;22.680;2022-10-17T02:54:19;100739.80;;;12.30
70050;BMP180;57391;51.306;22.680;2022-10-17T02:56:58;100742.20;;;12.30
70050;BMP180;57391;51.306;22.680;2022-10-17T02:59:29;100742.80;;;12.20
70050;BMP180;57391;51.306;22.680;2022-10-17T03:02:03;100745.00;;;12.20
70050;BMP180;57391;51.306;22.680;2022-10-17T03:04:32;100741.60;;;12.20
70050;BMP180;57391;51.306;22.680;2022-10-17T03:06:59;100739.80;;;12.20
70050;BMP180;57391;51.306;22.680;2022-10-17T03:09:26;100740.40;;;12.10
70050;BMP180;57391;51.306;22.680;2022-10-17T03:11:54;100748.60;;;12.10
70050;BMP180;57391;51.306;22.680;2022-10-17T03:14:21;100750.40;;;12.10
70050;BMP180;57391;51.306;22.680;2022-10-17T03:16:48;100756.80;;;12.10
70050;BMP180;57391;51.306;22.680;2022-10-17T03:19:16;100758.20;;;12.08
70050;BMP180;57391;51.306;22.680;2022-10-17T03:21:43;100758.40;;;12.00
70050;BMP180;57391;51.306;22.680;2022-10-17T03:24:11;100756.20;;;12.00
70050;BMP180;57391;51.306;22.680;2022-10-17T03:26:39;100747.80;;;12.00
70050;BMP180;57391;51.306;22.680;2022-10-17T03:29:06;100747.00;;;11.90
70050;BMP180;57391;51.306;22.680;2022-10-17T03:31:35;100746.00;;;11.90
70050;BMP180;57391;51.306;22.680;2022-10-17T03:34:02;100744.00;;;11.88
70050;BMP180;57391;51.306;22.680;2022-10-17T03:36:30;100744.00;;;11.80
70050;BMP180;57391;51.306;22.680;2022-10-17T03:38:57;100746.80;;;11.80
70050;BMP180;57391;51.306;22.680;2022-10-17T03:41:24;100754.00;;;11.80
70050;BMP180;57391;51.306;22.680;2022-10-17T03:43:52;100757.80;;;11.80
70050;BMP180;57391;51.306;22.680;2022-10-17T03:46:20;100754.60;;;11.72
70050;BMP180;57391;51.306;22.680;2022-10-17T03:48:47;100752.80;;;11.70
70050;BMP180;57391;51.306;22.680;2022-10-17T03:51:16;100750.00;;;11.70
70050;BMP180;57391;51.306;22.680;2022-10-17T03:53:46;100753.00;;;11.70
70050;BMP180;57391;51.306;22.680;2022-10-17T03:56:23;100751.80;;;11.70
70050;BMP180;57391;51.306;22.680;2022-10-17T03:58:57;100751.00;;;11.60
70050;BMP180;57391;51.306;22.680;2022-10-17T04:01:24;100752.80;;;11.60
70050;BMP180;57391;51.306;22.680;2022-10-17T04:03:54;100755.40;;;11.60
70050;BMP180;57391;51.306;22.680;2022-10-17T04:06:22;100751.20;;;11.60
70050;BMP180;57391;51.306;22.680;2022-10-17T04:08:50;100753.80;;;11.54
70050;BMP180;57391;51.306;22.680;2022-10-17T04:11:52;100755.80;;;11.54
70050;BMP180;57391;51.306;22.680;2022-10-17T04:14:20;100755.80;;;11.50
70050;BMP180;57391;51.306;22.680;2022-10-17T04:16:47;100762.20;;;11.54
70050;BMP180;57391;51.306;22.680;2022-10-17T04:19:18;100769.80;;;11.58
70050;BMP180;57391;51.306;22.680;2022-10-17T04:21:46;100776.00;;;11.60
70050;BMP180;57391;51.306;22.680;2022-10-17T04:24:14;100768.40;;;11.58
70050;BMP180;57391;51.306;22.680;2022-10-17T04:26:50;100774.40;;;11.60
70050;BMP180;57391;51.306;22.680;2022-10-17T04:29:18;100774.20;;;11.60
70050;BMP180;57391;51.306;22.680;2022-10-17T04:31:46;100778.60;;;11.60
70050;BMP180;57391;51.306;22.680;2022-10-17T04:34:29;100776.00;;;11.58
70050;BMP180;57391;51.306;22.680;2022-10-17T04:36:58;100778.00;;;11.50
70050;BMP180;57391;51.306;22.680;2022-10-17T04:39:26;100775.40;;;11.50
70050;BMP180;57391;51.306;22.680;2022-10-17T04:41:54;100777.20;;;11.50
70050;BMP180;57391;51.306;22.680;2022-10-17T04:44:22;100780.00;;;11.50
70050;BMP180;57391;51.306;22.680;2022-10-17T04:46:51;100782.80;;;11.50
70050;BMP180;57391;51.306;22.680;2022-10-17T04:49:19;100789.00;;;11.50
70050;BMP180;57391;51.306;22.680;2022-10-17T04:51:48;100785.80;;;11.50
70050;BMP180;57391;51.306;22.680;2022-10-17T04:54:25;100785.60;;;11.50
70050;BMP180;57391;51.306;22.680;2022-10-17T04:56:57;100786.20;;;11.50
70050;BMP180;57391;51.306;22.680;2022-10-17T04:59:25;100793.40;;;11.50
70050;BMP180;57391;51.306;22.680;2022-10-17T05:02:04;100797.40;;;11.50
70050;BMP180;57391;51.306;22.680;2022-10-17T05:04:32;100803.20;;;11.50
70050;BMP180;57391;51.306;22.680;2022-10-17T05:07:00;100804.80;;;11.48
70050;BMP180;57391;51.306;22.680;2022-10-17T05:09:52;100810.00;;;11.50
70050;BMP180;57391;51.306;22.680;2022-10-17T05:12:19;100816.20;;;11.50
70050;BMP180;57391;51.306;22.680;2022-10-17T05:14:48;100822.00;;;11.60
70050;BMP180;57391;51.306;22.680;2022-10-17T05:17:15;100821.20;;;11.70
70050;BMP180;57391;51.306;22.680;2022-10-17T05:19:42;100826.40;;;11.70
70050;BMP180;57391;51.306;22.680;2022-10-17T05:22:09;100830.60;;;11.80
70050;BMP180;57391;51.306;22.680;2022-10-17T05:24:36;100831.80;;;12.00
70050;BMP180;57391;51.306;22.680;2022-10-17T05:27:03;100842.20;;;12.10
70050;BMP180;57391;51.306;22.680;2022-10-17T05:29:31;100840.80;;;12.20
70050;BMP180;57391;51.306;22.680;2022-10-17T05:32:05;100833.80;;;12.50
70050;BMP180;57391;51.306;22.680;2022-10-17T05:34:34;100837.00;;;12.70
70050;BMP180;57391;51.306;22.680;2022-10-17T05:37:01;100834.20;;;12.90
70050;BMP180;57391;51.306;22.680;2022-10-17T05:39:28;100838.80;;;13.30
70050;BMP180;57391;51.306;22.680;2022-10-17T05:41:56;100847.20;;;13.50
70050;BMP180;57391;51.306;22.680;2022-10-17T05:44:23;100854.40;;;13.76
70050;BMP180;57391;51.306;22.680;2022-10-17T05:46:54;100856.60;;;14.10
70050;BMP180;57391;51.306;22.680;2022-10-17T05:49:21;100862.60;;;14.40
70050;BMP180;57391;51.306;22.680;2022-10-17T05:51:49;100868.80;;;14.60
70050;BMP180;57391;51.306;22.680;2022-10-17T05:54:16;100876.00;;;14.70
70050;BMP180;57391;51.306;22.680;2022-10-17T05:56:51;100886.80;;;15.00
70050;BMP180;57391;51.306;22.680;2022-10-17T05:59:27;100890.60;;;15.10
70050;BMP180;57391;51.306;22.680;2022-10-17T06:02:03;100893.80;;;15.30
70050;BMP180;57391;51.306;22.680;2022-10-17T06:04:31;100901.20;;;15.50
70050;BMP180;57391;51.306;22.680;2022-10-17T06:07:11;100896.00;;;15.60
70050;BMP180;57391;51.306;22.680;2022-10-17T06:09:41;100894.80;;;15.60
70050;BMP180;57391;51.306;22.680;2022-10-17T06:12:09;100891.00;;;15.60
70050;BMP180;57391;51.306;22.680;2022-10-17T06:14:36;100892.00;;;15.64
70050;BMP180;57391;51.306;22.680;2022-10-17T06:17:04;100895.20;;;15.68
70050;BMP180;57391;51.306;22.680;2022-10-17T06:19:31;100897.60;;;15.60
70050;BMP180;57391;51.306;22.680;2022-10-17T06:21:58;100896.40;;;15.60
70050;BMP180;57391;51.306;22.680;2022-10-17T06:24:26;100895.00;;;15.60
70050;BMP180;57391;51.306;22.680;2022-10-17T06:26:54;100896.80;;;15.60
70050;BMP180;57391;51.306;22.680;2022-10-17T06:29:22;100900.00;;;15.60
70050;BMP180;57391;51.306;22.680;2022-10-17T06:31:51;100908.20;;;15.70
70050;BMP180;57391;51.306;22.680;2022-10-17T06:34:20;100916.40;;;15.96
70050;BMP180;57391;51.306;22.680;2022-10-17T06:36:47;100918.80;;;16.30
70050;BMP180;57391;51.306;22.680;2022-10-17T06:39:15;100921.00;;;16.60
70050;BMP180;57391;51.306;22.680;2022-10-17T06:41:48;100918.80;;;16.90
70050;BMP180;57391;51.306;22.680;2022-10-17T06:44:18;100918.80;;;17.18
70050;BMP180;57391;51.306;22.680;2022-10-17T06:47:08;100928.60;;;17.48
70050;BMP180;57391;51.306;22.680;2022-10-17T06:49:37;100935.20;;;17.70
70050;BMP180;57391;51.306;22.680;2022-10-17T06:52:18;100943.60;;;17.90
70050;BMP180;57391;51.306;22.680;2022-10-17T06:55:07;100951.00;;;18.14
70050;BMP180;57391;51.306;22.680;2022-10-17T06:57:42;100950.60;;;18.30
70050;BMP180;57391;51.306;22.680;2022-10-17T07:00:29;100953.20;;;18.48
70050;BMP180;57391;51.306;22.680;2022-10-17T07:02:57;100953.60;;;18.58
70050;BMP180;57391;51.306;22.680;2022-10-17T07:05:24;100959.40;;;18.76
70050;BMP180;57391;51.306;22.680;2022-10-17T07:07:51;100971.20;;;18.98
70050;BMP180;57391;51.306;22.680;2022-10-17T07:10:19;100974.00;;;19.14
70050;BMP180;57391;51.306;22.680;2022-10-17T07:12:46;100978.20;;;19.20
70050;BMP180;57391;51.306;22.680;2022-10-17T07:15:13;100980.00;;;19.20
70050;BMP180;57391;51.306;22.680;2022-10-17T07:17:40;100985.80;;;19.30
70050;BMP180;57391;51.306;22.680;2022-10-17T07:20:08;100987.20;;;19.30
70050;BMP180;57391;51.306;22.680;2022-10-17T07:22:37;100986.00;;;19.46
70050;BMP180;57391;51.306;22.680;2022-10-17T07:25:05;100985.40;;;19.68
70050;BMP180;57391;51.306;22.680;2022-10-17T07:27:38;100979.20;;;19.90
70050;BMP180;57391;51.306;22.680;2022-10-17T07:30:06;100977.20;;;20.10
70050;BMP180;57391;51.306;22.680;2022-10-17T07:32:47;100972.60;;;20.40
70050;BMP180;57391;51.306;22.680;2022-10-17T07:35:15;100973.00;;;20.70
70050;BMP180;57391;51.306;22.680;2022-10-17T07:37:42;100977.20;;;20.86
70050;BMP180;57391;51.306;22.680;2022-10-17T07:40:10;100977.40;;;21.00
70050;BMP180;57391;51.306;22.680;2022-10-17T07:42:37;100979.00;;;21.14
70050;BMP180;57391;51.306;22.680;2022-10-17T07:45:06;100987.00;;;21.30
70050;BMP180;57391;51.306;22.680;2022-10-17T07:47:33;100991.60;;;21.50
70050;BMP180;57391;51.306;22.680;2022-10-17T07:50:07;100992.00;;;21.66
70050;BMP180;57391;51.306;22.680;2022-10-17T07:52:34;100997.20;;;21.70
70050;BMP180;57391;51.306;22.680;2022-10-17T07:55:01;100992.40;;;21.80
70050;BMP180;57391;51.306;22.680;2022-10-17T07:57:29;100991.60;;;21.92
70050;BMP180;57391;51.306;22.680;2022-10-17T07:59:55;100995.80;;;22.06
70050;BMP180;57391;51.306;22.680;2022-10-17T08:02:26;101008.40;;;22.20
70050;BMP180;57391;51.306;22.680;2022-10-17T08:04:53;101007.60;;;22.30
70050;BMP180;57391;51.306;22.680;2022-10-17T08:07:21;101004.20;;;22.42
70050;BMP180;57391;51.306;22.680;2022-10-17T08:09:49;101008.80;;;22.50
70050;BMP180;57391;51.306;22.680;2022-10-17T08:12:16;101012.20;;;22.50
70050;BMP180;57391;51.306;22.680;2022-10-17T08:14:43;101014.80;;;22.40
70050;BMP180;57391;51.306;22.680;2022-10-17T08:17:10;101011.20;;;22.40
70050;BMP180;57391;51.306;22.680;2022-10-17T08:19:39;101008.20;;;22.48
70050;BMP180;57391;51.306;22.680;2022-10-17T08:22:07;101008.00;;;22.56
70050;BMP180;57391;51.306;22.680;2022-10-17T08:24:34;101006.80;;;22.60
70050;BMP180;57391;51.306;22.680;2022-10-17T08:27:02;101004.60;;;22.76
70050;BMP180;57391;51.306;22.680;2022-10-17T08:29:34;100997.40;;;22.80
70050;BMP180;57391;51.306;22.680;2022-10-17T08:32:01;100993.20;;;22.96
70050;BMP180;57391;51.306;22.680;2022-10-17T08:34:28;101005.60;;;23.10
70050;BMP180;57391;51.306;22.680;2022-10-17T08:36:55;101005.40;;;23.20
70050;BMP180;57391;51.306;22.680;2022-10-17T08:39:22;101009.80;;;23.40
70050;BMP180;57391;51.306;22.680;2022-10-17T08:47:42;101010.80;;;23.86
70050;BMP180;57391;51.306;22.680;2022-10-17T08:50:47;101006.00;;;23.98
70050;BMP180;57391;51.306;22.680;2022-10-17T08:53:23;101011.60;;;24.06
70050;BMP180;57391;51.306;22.680;2022-10-17T08:55:53;101015.60;;;24.10
70050;BMP180;57391;51.306;22.680;2022-10-17T08:58:23;101017.80;;;24.10
70050;BMP180;57391;51.306;22.680;2022-10-17T09:01:11;101015.60;;;24.04
70050;BMP180;57391;51.306;22.680;2022-10-17T09:06:37;101016.40;;;24.00
70050;BMP180;57391;51.306;22.680;2022-10-17T09:09:12;101012.00;;;24.00
70050;BMP180;57391;51.306;22.680;2022-10-17T09:11:55;101005.40;;;23.90
70050;BMP180;57391;51.306;22.680;2022-10-17T09:14:57;101009.60;;;23.90
70050;BMP180;57391;51.306;22.680;2022-10-17T09:17:58;101008.20;;;23.90
70050;BMP180;57391;51.306;22.680;2022-10-17T09:20:35;101015.00;;;24.00
70050;BMP180;57391;51.306;22.680;2022-10-17T09:23:12;101014.00;;;24.10
70050;BMP180;57391;51.306;22.680;2022-10-17T09:25:46;101024.40;;;24.20
70050;BMP180;57391;51.306;22.680;2022-10-17T09:28:30;101021.80;;;24.20
70050;BMP180;57391;51.306;22.680;2022-10-17T09:31:29;101021.20;;;24.20
70050;BMP180;57391;51.306;22.680;2022-10-17T09:34:01;101024.60;;;24.30
70050;BMP180;57391;51.306;22.680;2022-10-17T09:36:32;101030.00;;;24.24
70050;BMP180;57391;51.306;22.680;2022-10-17T09:39:04;101028.60;;;24.40
70050;BMP180;57391;51.306;22.680;2022-10-17T09:42:03;101036.20;;;24.40
70050;BMP180;57391;51.306;22.680;2022-10-17T09:44:46;101035.60;;;24.50
70050;BMP180;57391;51.306;22.680;2022-10-17T09:47:38;101032.60;;;24.48
70050;BMP180;57391;51.306;22.680;2022-10-17T09:50:19;101032.00;;;24.40
70050;BMP180;57391;51.306;22.680;2022-10-17T09:52:48;101032.20;;;24.40
70050;BMP180;57391;51.306;22.680;2022-10-17T09:55:46;101035.80;;;24.40
70050;BMP180;57391;51.306;22.680;2022-10-17T09:58:14;101039.20;;;24.40
70050;BMP180;57391;51.306;22.680;2022-10-17T10:00:45;101041.20;;;24.40
70050;BMP180;57391;51.306;22.680;2022-10-17T10:03:23;101042.80;;;24.50
70050;BMP180;57391;51.306;22.680;2022-10-17T10:06:18;101045.00;;;24.50
70050;BMP180;57391;51.306;22.680;2022-10-17T10:08:55;101043.60;;;24.44
70050;BMP180;57391;51.306;22.680;2022-10-17T10:11:53;101044.00;;;24.48
70050;BMP180;57391;51.306;22.680;2022-10-17T10:14:33;101047.20;;;24.40
70050;BMP180;57391;51.306;22.680;2022-10-17T10:17:05;101047.00;;;24.40
70050;BMP180;57391;51.306;22.680;2022-10-17T10:19:51;101047.60;;;24.40
70050;BMP180;57391;51.306;22.680;2022-10-17T10:22:20;101047.20;;;24.40
70050;BMP180;57391;51.306;22.680;2022-10-17T10:25:14;101046.80;;;24.48
70050;BMP180;57391;51.306;22.680;2022-10-17T10:27:44;101049.20;;;24.60
70050;BMP180;57391;51.306;22.680;2022-10-17T10:30:20;101044.40;;;24.60
70050;BMP180;57391;51.306;22.680;2022-10-17T10:32:49;101046.60;;;24.70
70050;BMP180;57391;51.306;22.680;2022-10-17T10:35:36;101046.20;;;24.78
70050;BMP180;57391;51.306;22.680;2022-10-17T10:38:14;101045.60;;;24.80
70050;BMP180;57391;51.306;22.680;2022-10-17T10:40:54;101041.80;;;24.88
70050;BMP180;57391;51.306;22.680;2022-10-17T10:43:45;101045.80;;;24.90
70050;BMP180;57391;51.306;22.680;2022-10-17T10:46:17;101044.00;;;24.90
70050;BMP180;57391;51.306;22.680;2022-10-17T10:49:01;101042.40;;;24.90
70050;BMP180;57391;51.306;22.680;2022-10-17T10:51:48;101041.00;;;24.90
70050;BMP180;57391;51.306;22.680;2022-10-17T10:54:23;101040.20;;;24.90
70050;BMP180;57391;51.306;22.680;2022-10-17T10:56:56;101033.40;;;24.90
70050;BMP180;57391;51.306;22.680;2022-10-17T11:00:04;101030.80;;;24.90
70050;BMP180;57391;51.306;22.680;2022-10-17T11:02:57;101027.60;;;24.90
70050;BMP180;57391;51.306;22.680;2022-10-17T11:13:22;101027.40;;;24.90
70050;BMP180;57391;51.306;22.680;2022-10-17T11:16:03;101027.20;;;24.90
70050;BMP180;57391;51.306;22.680;2022-10-17T11:19:23;101021.40;;;24.90
70050;BMP180;57391;51.306;22.680;2022-10-17T11:22:13;101019.60;;;24.86
70050;BMP180;57391;51.306;22.680;2022-10-17T11:27:43;101009.20;;;24.70
70050;BMP180;57391;51.306;22.680;2022-10-17T11:30:15;101008.60;;;24.64
70050;BMP180;57391;51.306;22.680;2022-10-17T11:32:52;101008.40;;;24.60
70050;BMP180;57391;51.306;22.680;2022-10-17T11:35:35;101005.20;;;24.70
70050;BMP180;57391;51.306;22.680;2022-10-17T11:40:45;100997.40;;;24.80
70050;BMP180;57391;51.306;22.680;2022-10-17T11:43:32;101000.40;;;24.80
70050;BMP180;57391;51.306;22.680;2022-10-17T11:46:12;101001.80;;;24.80
70050;BMP180;57391;51.306;22.680;2022-10-17T11:49:13;100995.60;;;24.80
70050;BMP180;57391;51.306;22.680;2022-10-17T11:54:53;100993.20;;;24.70
70050;BMP180;57391;51.306;22.680;2022-10-17T12:09:31;100979.80;;;24.60
70050;BMP180;57391;51.306;22.680;2022-10-17T12:12:04;100976.60;;;24.60
70050;BMP180;57391;51.306;22.680;2022-10-17T12:17:34;100982.60;;;24.60
70050;BMP180;57391;51.306;22.680;2022-10-17T12:20:26;100980.20;;;24.50
70050;BMP180;57391;51.306;22.680;2022-10-17T12:25:58;100972.00;;;24.48
70050;BMP180;57391;51.306;22.680;2022-10-17T12:28:39;100973.60;;;24.56
70050;BMP180;57391;51.306;22.680;2022-10-17T12:31:22;100972.00;;;24.50
70050;BMP180;57391;51.306;22.680;2022-10-17T12:34:03;100974.00;;;24.50
70050;BMP180;57391;51.306;22.680;2022-10-17T12:49:47;100950.60;;;24.70
70050;BMP180;57391;51.306;22.680;2022-10-17T12:52:24;100950.60;;;24.64
70050;BMP180;57391;51.306;22.680;2022-10-17T12:57:56;100957.20;;;24.60
70050;BMP180;57391;51.306;22.680;2022-10-17T13:00:51;100956.00;;;24.60
70050;BMP180;57391;51.306;22.680;2022-10-17T13:03:25;100951.60;;;24.60
70050;BMP180;57391;51.306;22.680;2022-10-17T13:06:06;100950.40;;;24.58
70050;BMP180;57391;51.306;22.680;2022-10-17T13:08:39;100942.20;;;24.50
70050;BMP180;57391;51.306;22.680;2022-10-17T13:11:10;100942.60;;;24.50
70050;BMP180;57391;51.306;22.680;2022-10-17T13:14:13;100942.20;;;24.50
70050;BMP180;57391;51.306;22.680;2022-10-17T13:16:57;100947.00;;;24.50
70050;BMP180;57391;51.306;22.680;2022-10-17T13:19:50;100946.40;;;24.50
70050;BMP180;57391;51.306;22.680;2022-10-17T13:22:24;100949.00;;;24.50
70050;BMP180;57391;51.306;22.680;2022-10-17T13:25:06;100951.60;;;24.46
70050;BMP180;57391;51.306;22.680;2022-10-17T13:27:35;100952.00;;;24.40
70050;BMP180;57391;51.306;22.680;2022-10-17T13:30:31;100955.60;;;24.40
70050;BMP180;57391;51.306;22.680;2022-10-17T13:33:01;100954.00;;;24.40
70050;BMP180;57391;51.306;22.680;2022-10-17T13:35:33;100956.20;;;24.30
70050;BMP180;57391;51.306;22.680;2022-10-17T13:38:04;100947.20;;;24.30
70050;BMP180;57391;51.306;22.680;2022-10-17T13:40:41;100943.60;;;24.22
70050;BMP180;57391;51.306;22.680;2022-10-17T13:43:30;100943.60;;;24.20
70050;BMP180;57391;51.306;22.680;2022-10-17T13:46:01;100945.00;;;24.20
70050;BMP180;57391;51.306;22.680;2022-10-17T13:48:35;100947.20;;;24.20
70050;BMP180;57391;51.306;22.680;2022-10-17T13:51:04;100948.20;;;24.10
70050;BMP180;57391;51.306;22.680;2022-10-17T13:53:37;100944.40;;;24.10
70050;BMP180;57391;51.306;22.680;2022-10-17T13:56:22;100940.00;;;24.00
70050;BMP180;57391;51.306;22.680;2022-10-17T13:59:00;100934.80;;;23.90
70050;BMP180;57391;51.306;22.680;2022-10-17T14:01:31;100934.20;;;23.80
70050;BMP180;57391;51.306;22.680;2022-10-17T14:03:58;100935.80;;;23.72
70050;BMP180;57391;51.306;22.680;2022-10-17T14:06:28;100935.60;;;23.70
70050;BMP180;57391;51.306;22.680;2022-10-17T14:09:05;100940.40;;;23.60
70050;BMP180;57391;51.306;22.680;2022-10-17T14:11:40;100934.20;;;23.50
70050;BMP180;57391;51.306;22.680;2022-10-17T14:14:20;100928.60;;;23.40
70050;BMP180;57391;51.306;22.680;2022-10-17T14:16:48;100933.60;;;23.38
70050;BMP180;57391;51.306;22.680;2022-10-17T14:19:28;100935.80;;;23.30
70050;BMP180;57391;51.306;22.680;2022-10-17T14:22:34;100932.20;;;23.20
70050;BMP180;57391;51.306;22.680;2022-10-17T14:25:03;100933.00;;;23.10
70050;BMP180;57391;51.306;22.680;2022-10-17T14:27:35;100926.60;;;23.00
70050;BMP180;57391;51.306;22.680;2022-10-17T14:30:32;100922.00;;;22.90
70050;BMP180;57391;51.306;22.680;2022-10-17T14:33:06;100923.00;;;22.90
70050;BMP180;57391;51.306;22.680;2022-10-17T14:35:34;100925.20;;;22.80
70050;BMP180;57391;51.306;22.680;2022-10-17T14:38:05;100924.40;;;22.78
70050;BMP180;57391;51.306;22.680;2022-10-17T14:40:34;100929.60;;;22.70
70050;BMP180;57391;51.306;22.680;2022-10-17T14:43:04;100931.40;;;22.60
70050;BMP180;57391;51.306;22.680;2022-10-17T14:45:36;100924.40;;;22.54
70050;BMP180;57391;51.306;22.680;2022-10-17T14:48:16;100923.40;;;22.50
70050;BMP180;57391;51.306;22.680;2022-10-17T14:51:18;100924.20;;;22.40
70050;BMP180;57391;51.306;22.680;2022-10-17T14:54:21;100924.00;;;22.30
70050;BMP180;57391;51.306;22.680;2022-10-17T14:56:52;100927.00;;;22.20
70050;BMP180;57391;51.306;22.680;2022-10-17T14:59:23;100925.40;;;22.10
70050;BMP180;57391;51.306;22.680;2022-10-17T15:01:51;100927.00;;;22.00
70050;BMP180;57391;51.306;22.680;2022-10-17T15:04:18;100927.80;;;21.94
70050;BMP180;57391;51.306;22.680;2022-10-17T15:06:53;100924.40;;;21.82
70050;BMP180;57391;51.306;22.680;2022-10-17T15:09:21;100923.60;;;21.76
70050;BMP180;57391;51.306;22.680;2022-10-17T15:11:49;100925.60;;;21.70
70050;BMP180;57391;51.306;22.680;2022-10-17T15:14:17;100927.00;;;21.60
70050;BMP180;57391;51.306;22.680;2022-10-17T15:16:44;100923.40;;;21.50
70050;BMP180;57391;51.306;22.680;2022-10-17T15:19:13;100925.40;;;21.40
70050;BMP180;57391;51.306;22.680;2022-10-17T15:21:40;100926.40;;;21.40
70050;BMP180;57391;51.306;22.680;2022-10-17T15:24:07;100924.80;;;21.30
70050;BMP180;57391;51.306;22.680;2022-10-17T15:26:35;100929.00;;;21.20
70050;BMP180;57391;51.306;22.680;2022-10-17T15:29:03;100925.60;;;21.12
70050;BMP180;57391;51.306;22.680;2022-10-17T15:31:31;100915.20;;;21.02
70050;BMP180;57391;51.306;22.680;2022-10-17T15:33:59;100916.80;;;20.90
70050;BMP180;57391;51.306;22.680;2022-10-17T15:36:29;100918.20;;;20.80
70050;BMP180;57391;51.306;22.680;2022-10-17T15:39:00;100919.80;;;20.70
70050;BMP180;57391;51.306;22.680;2022-10-17T15:41:30;100916.20;;;20.60
70050;BMP180;57391;51.306;22.680;2022-10-17T15:43:58;100911.60;;;20.50
70050;BMP180;57391;51.306;22.680;2022-10-17T15:46:29;100913.00;;;20.40
70050;BMP180;57391;51.306;22.680;2022-10-17T15:49:05;100910.80;;;20.36
70050;BMP180;57391;51.306;22.680;2022-10-17T15:51:36;100918.00;;;20.28
70050;BMP180;57391;51.306;22.680;2022-10-17T15:54:04;100913.80;;;20.18
70050;BMP180;57391;51.306;22.680;2022-10-17T15:56:39;100909.00;;;20.04